createdAt,value
2022-12-08T00:04:25.792Z,6.50
2022-12-08T00:09:51.744Z,5.63
2022-12-08T00:15:19.547Z,6.89
2022-12-08T00:20:47.002Z,6.51
2022-12-08T00:26:16.189Z,6.08
2022-12-08T00:31:43.247Z,6.15
2022-12-08T00:37:09.020Z,5.99
2022-12-08T00:42:34.315Z,6.87
2022-12-08T00:47:59.792Z,5.89
2022-12-08T00:53:22.154Z,6.41
2022-12-08T00:58:43.604Z,5.54
2022-12-08T01:04:10.811Z,5.90
2022-12-08T01:09:36.091Z,5.60
2022-12-08T01:15:02.997Z,6.21
2022-12-08T01:20:30.688Z,6.74
2022-12-08T01:25:55.606Z,6.29
2022-12-08T01:31:21.913Z,5.81
2022-12-08T01:36:47.229Z,6.69
2022-12-08T01:42:12.895Z,6.61
2022-12-08T01:47:41.766Z,5.69
2022-12-08T01:53:07.577Z,6.22
2022-12-08T01:58:35.224Z,4.26
2022-12-08T02:03:58.813Z,4.93
2022-12-08T02:09:25.414Z,6.26
2022-12-08T02:14:49.540Z,6.01
2022-12-08T02:20:14.590Z,6.06
2022-12-08T02:25:54.749Z,6.35
2022-12-08T02:31:37.191Z,6.06
2022-12-08T02:37:06.886Z,5.86
2022-12-08T02:42:33.033Z,5.06
2022-12-08T02:47:57.316Z,6.35
2022-12-08T02:53:23.713Z,6.67
2022-12-08T02:58:50.876Z,4.85
2022-12-08T03:04:28.861Z,6.02
2022-12-08T03:09:55.196Z,5.80
2022-12-08T03:15:21.417Z,5.85
2022-12-08T03:20:45.530Z,5.39
2022-12-08T03:26:10.371Z,5.80
2022-12-08T03:31:35.327Z,6.12
2022-12-08T03:36:58.751Z,6.45
2022-12-08T03:42:25.554Z,5.63
2022-12-08T03:47:51.777Z,6.43
2022-12-08T03:53:18.793Z,5.94
2022-12-08T03:58:46.368Z,5.47
2022-12-08T04:04:09.130Z,5.50
2022-12-08T04:09:35.889Z,6.02
2022-12-08T04:14:59.605Z,6.08
2022-12-08T04:20:24.746Z,5.55
2022-12-08T04:25:51.103Z,6.55
2022-12-08T04:31:12.268Z,5.92
2022-12-08T04:36:38.747Z,6.24
2022-12-08T04:42:02.550Z,6.34
2022-12-08T04:47:28.643Z,6.34
2022-12-08T04:52:55.590Z,7.62
2022-12-08T04:58:21.887Z,3.93
2022-12-08T05:03:49.903Z,7.27
2022-12-08T05:09:16.271Z,6.03
2022-12-08T05:14:43.336Z,6.21
2022-12-08T05:20:07.045Z,6.49
2022-12-08T05:25:28.968Z,5.55
2022-12-08T05:30:55.879Z,6.08
2022-12-08T05:36:21.786Z,5.23
2022-12-08T05:41:49.022Z,7.61
2022-12-08T05:47:14.594Z,6.28
2022-12-08T05:52:36.885Z,6.55
2022-12-08T05:58:00.848Z,5.96
2022-12-08T06:03:19.223Z,5.82
2022-12-08T06:08:40.775Z,5.99
2022-12-08T06:14:04.325Z,3.58
2022-12-08T06:19:31.180Z,6.05
2022-12-08T06:24:55.644Z,5.62
2022-12-08T06:30:20.692Z,6.06
2022-12-08T06:35:47.156Z,5.67
2022-12-08T06:41:13.261Z,5.71
2022-12-08T06:46:39.102Z,5.43
2022-12-08T06:52:05.913Z,5.13
2022-12-08T06:57:29.272Z,6.03
2022-12-08T07:02:55.448Z,5.53
2022-12-08T07:08:20.658Z,6.00
2022-12-08T07:13:46.204Z,6.10
2022-12-08T07:19:11.009Z,5.11
2022-12-08T07:24:35.990Z,6.47
2022-12-08T07:30:02.476Z,6.34
2022-12-08T07:35:27.051Z,5.84
2022-12-08T07:40:53.961Z,5.35
2022-12-08T07:46:20.065Z,5.43
2022-12-08T07:51:46.074Z,5.49
2022-12-08T07:57:06.991Z,4.93
2022-12-08T08:02:28.409Z,5.44
2022-12-08T08:07:49.375Z,5.27
2022-12-08T08:13:16.445Z,4.80
2022-12-08T08:18:40.508Z,5.72
2022-12-08T08:24:06.224Z,4.37
2022-12-08T08:29:30.670Z,5.57
2022-12-08T08:34:51.624Z,5.83
2022-12-08T08:40:16.186Z,5.83
2022-12-08T08:45:43.683Z,6.05
2022-12-08T08:51:08.608Z,5.11
2022-12-08T08:56:32.456Z,6.90
2022-12-08T09:01:54.035Z,5.99
2022-12-08T09:07:20.290Z,5.16
2022-12-08T09:12:47.202Z,5.78
2022-12-08T09:18:12.476Z,5.84
2022-12-08T09:23:41.239Z,5.56
2022-12-08T09:29:06.629Z,6.15
2022-12-08T09:34:29.833Z,6.03
2022-12-08T09:39:54.198Z,6.59
2022-12-08T09:45:19.309Z,5.82
2022-12-08T09:50:45.549Z,5.57
2022-12-08T09:56:12.168Z,6.26
2022-12-08T10:02:34.408Z,5.04
2022-12-08T10:07:57.928Z,5.94
2022-12-08T10:13:21.151Z,4.74
2022-12-08T10:18:43.826Z,5.34
2022-12-08T10:24:08.238Z,5.31
2022-12-08T10:29:34.298Z,5.60
2022-12-08T10:34:58.171Z,5.66
2022-12-08T10:40:22.659Z,6.04
2022-12-08T10:45:47.363Z,5.99
2022-12-08T10:51:09.281Z,5.56
2022-12-08T10:56:42.770Z,5.41
2022-12-08T11:02:07.616Z,5.06
2022-12-08T11:07:35.039Z,6.10
2022-12-08T11:13:04.779Z,5.61
2022-12-08T11:18:34.571Z,5.70
2022-12-08T11:23:57.104Z,5.48
2022-12-08T11:29:25.601Z,5.12
2022-12-08T11:34:47.499Z,5.85
2022-12-08T11:40:12.624Z,5.22
2022-12-08T11:45:38.698Z,5.55
2022-12-08T11:51:01.938Z,4.85
2022-12-08T11:56:26.606Z,4.52
2022-12-08T12:01:48.489Z,5.05
2022-12-08T12:07:15.053Z,4.77
2022-12-08T12:13:05.006Z,5.32
2022-12-08T12:18:54.195Z,4.72
2022-12-08T12:24:15.282Z,4.91
2022-12-08T12:29:55.482Z,4.93
2022-12-08T12:35:11.322Z,5.68
2022-12-08T12:40:39.562Z,4.84
2022-12-08T12:46:02.482Z,4.97
2022-12-08T12:51:57.953Z,4.55
2022-12-08T12:57:22.760Z,4.95
2022-12-08T13:02:49.955Z,4.71
2022-12-08T13:08:13.470Z,4.13
2022-12-08T13:13:38.819Z,4.55
2022-12-08T13:19:12.561Z,5.05
2022-12-08T13:24:39.003Z,4.25
2022-12-08T13:30:05.848Z,4.44
2022-12-08T13:36:00.628Z,4.02
2022-12-08T13:41:30.553Z,4.18
2022-12-08T13:47:32.411Z,4.35
2022-12-08T13:57:49.548Z,3.04
2022-12-08T14:03:17.917Z,4.17
2022-12-08T14:09:02.370Z,4.02
2022-12-08T14:14:06.589Z,4.22
2022-12-08T14:19:32.341Z,4.09
2022-12-08T14:24:54.077Z,3.30
2022-12-08T14:30:20.820Z,4.04
2022-12-08T14:35:48.838Z,3.83
2022-12-08T14:41:12.162Z,3.75
2022-12-08T14:46:38.611Z,4.09
2022-12-08T14:52:16.359Z,3.79
2022-12-08T14:57:42.161Z,4.26
2022-12-08T15:03:06.855Z,4.34
2022-12-08T15:08:32.533Z,3.63
2022-12-08T15:14:08.639Z,3.72
2022-12-08T15:19:47.289Z,4.29
2022-12-08T15:25:17.758Z,4.63
2022-12-08T15:30:38.617Z,4.37
2022-12-08T15:36:03.680Z,3.89
2022-12-08T15:41:30.718Z,4.64
2022-12-08T15:46:58.706Z,4.88
2022-12-08T15:52:21.385Z,4.93
2022-12-08T15:58:44.973Z,4.74
2022-12-08T16:03:34.250Z,5.17
2022-12-08T16:08:49.600Z,4.35
2022-12-08T16:14:33.556Z,4.68
2022-12-08T16:19:27.451Z,4.03
2022-12-08T16:24:51.797Z,4.89
2022-12-08T16:30:15.031Z,4.95
2022-12-08T16:35:40.650Z,4.88
2022-12-08T16:41:06.207Z,4.73
2022-12-08T16:46:32.372Z,4.97
2022-12-08T16:51:58.140Z,5.57
2022-12-08T16:57:23.529Z,5.31
2022-12-08T17:02:49.309Z,4.67
2022-12-08T17:08:15.323Z,4.88
2022-12-08T17:13:39.640Z,4.60
2022-12-08T17:19:05.015Z,4.55
2022-12-08T17:24:27.961Z,4.94
2022-12-08T17:29:49.013Z,6.07
2022-12-08T17:35:14.073Z,5.09
2022-12-08T17:40:41.126Z,4.88
2022-12-08T17:46:07.234Z,5.32
2022-12-08T17:51:36.662Z,5.50
2022-12-08T17:56:58.468Z,4.69
2022-12-08T18:02:21.296Z,5.22
2022-12-08T18:07:47.283Z,5.64
2022-12-08T18:13:15.160Z,5.45
2022-12-08T18:18:42.104Z,5.34
2022-12-08T18:24:09.287Z,4.65
2022-12-08T18:29:31.725Z,5.42
2022-12-08T18:34:57.508Z,5.12
2022-12-08T18:40:22.001Z,5.67
2022-12-08T18:45:47.128Z,5.68
2022-12-08T18:51:18.532Z,5.96
2022-12-08T18:56:41.887Z,5.54
2022-12-08T19:02:08.507Z,5.45
2022-12-08T19:07:30.787Z,6.06
2022-12-08T19:12:57.441Z,5.68
2022-12-08T19:18:22.391Z,5.19
2022-12-08T19:23:48.575Z,6.25
2022-12-08T19:29:13.402Z,5.60
2022-12-08T19:34:40.397Z,5.32
2022-12-08T19:40:06.941Z,6.24
2022-12-08T19:45:33.592Z,5.83
2022-12-08T19:50:57.497Z,6.34
2022-12-08T19:56:20.963Z,5.89
2022-12-08T20:01:43.450Z,6.40
2022-12-08T20:07:06.732Z,6.01
2022-12-08T20:12:29.727Z,6.33
2022-12-08T20:17:54.079Z,6.13
2022-12-08T20:23:20.032Z,5.81
2022-12-08T20:28:45.321Z,5.39
2022-12-08T20:34:07.132Z,5.84
2022-12-08T20:39:32.030Z,5.58
2022-12-08T20:44:58.351Z,5.85
2022-12-08T20:50:32.005Z,5.48
2022-12-08T20:56:07.109Z,5.24
2022-12-08T21:01:32.123Z,5.71
2022-12-08T21:06:59.005Z,5.45
2022-12-08T21:12:19.867Z,6.08
2022-12-08T21:17:42.246Z,5.58
2022-12-08T21:23:06.579Z,6.61
2022-12-08T21:28:31.545Z,7.18
2022-12-08T21:33:54.449Z,7.64
2022-12-08T21:39:15.596Z,7.84
2022-12-08T21:44:39.758Z,7.93
2022-12-08T21:50:02.853Z,7.66
2022-12-08T21:55:31.485Z,7.11
2022-12-08T22:00:54.054Z,7.69
2022-12-08T22:06:20.375Z,8.15
2022-12-08T22:11:44.962Z,8.16
2022-12-08T22:17:08.475Z,7.80
2022-12-08T22:22:34.513Z,7.37
2022-12-08T22:28:00.428Z,6.82
2022-12-08T22:33:26.642Z,7.21
2022-12-08T22:38:52.887Z,6.40
2022-12-08T22:44:18.413Z,6.23
2022-12-08T22:49:43.571Z,6.01
2022-12-08T22:55:10.514Z,6.78
2022-12-08T23:00:36.252Z,6.57
2022-12-08T23:06:00.752Z,6.11
2022-12-08T23:11:31.517Z,5.75
2022-12-08T23:16:55.288Z,6.93
2022-12-08T23:22:21.956Z,7.47
2022-12-08T23:27:46.540Z,6.32
2022-12-08T23:33:09.264Z,6.01
2022-12-08T23:38:31.258Z,6.02
2022-12-08T23:43:55.392Z,6.52
2022-12-08T23:49:20.767Z,6.34
2022-12-08T23:54:46.538Z,6.60
